Airfield :
LOGIN :

Register | Disclaimer

   EN    FR    IT 

 










Legend :    VFR   Marginal VFR   IFR   Intensive IFR   Very Intensive IFR
Visi :
Ceiling :
>= 8 km
>= 3000ft
5 to 8 km
1000 to 3000 ft
1500m to 5 km
500 to 1000 ft
800 to 1500m
200 to 500 ft
< 800m
< 200 ft
Symbols :   Thunderstorms  Fog  Heavy snow  Heavy precipitations  Wind > 20 kt
SIGMETs :     Misc.  Thunderstorms  Icing  Turbulence  Mountain Waves  Volcanic Ashes







- Airport Elevation : 364 ft
- Download approach charts


LFAQ - Albert Bray

CURRENT METAR :
  • 182300Z AUTO VRB01KT 9999 -RA BKN019/// BKN039/// OVC054/// ///TCU 07/07 Q1019

EXPIRED METARs :
  • 182230Z AUTO 36007KT 5000 RA BR FEW007 BKN021 OVC027 07/07 Q1019
  • 182200Z AUTO 01010KT 3800 RA BR BKN004/// OVC009/// ///TCU 08/07 Q1019
  • 182130Z AUTO 29008KT 5000 RA BR BKN006/// OVC012/// ///TCU 09/08 Q1019
  • 182100Z AUTO 29010KT 250V320 4700 RA BR BKN007/// BKN013/// BKN018/// ///TCU 09/08 Q1019
  • 182030Z AUTO 28010KT 6000 -RA OVC008/// ///TCU 09/08 Q1019

TAF TAF LFAQ
Valid from the 18 at 15:00 until the 19 at 00:00 UTC


181400Z 1815/1824 25010KT 9999 BKN025
BECMG 1815/1817 4000 RA BKN007 OVC013
TEMPO 1818/1822 2000 BKN005 BKN013TCU
BECMG 1822/1824 33008KT 9999 NSW SCT030
No reported NOTAMs for that airfield.
1 SIGMET reported for the Paris FIR (LFFF) :
 
Severe icing
LFFF SIGMET 1 VALID 182100/190100 LFPW
LFFF PARIS FIR/UIR SEV ICE OBS WI N5045 E00315 - N4930 E00600 - N4915 E00515 - N5000 E00300 FL080/220 MOV SE 20KT NC=



MET'MAP, your aeronautical weather chart ! - Copyright ORBIFLY December 2007 - Disclaimer

ORBIFLY MET'MAP TEAM :

Programming & Development : Alexandra Zaïnal
Concept & Development : Baudouin d'Aumeries
Co-Development & Prog : Marc-Olivier Méhu
Technical & hardware support : Manuel Goepfert

Contact : metmap@orbifly.com




SOURCES & CREDITS :

   NOAA